createdAt,value
2022-09-18T00:01:26.612Z,1.20
2022-09-18T00:03:59.837Z,0.63
2022-09-18T00:06:29.907Z,1.00
2022-09-18T00:08:59.402Z,0.83
2022-09-18T00:11:29.429Z,1.10
2022-09-18T00:13:56.788Z,1.00
2022-09-18T00:16:24.717Z,1.20
2022-09-18T00:18:51.806Z,0.60
2022-09-18T00:21:21.775Z,0.93
2022-09-18T00:23:48.862Z,0.80
2022-09-18T00:26:18.517Z,0.90
2022-09-18T00:28:46.030Z,0.90
2022-09-18T00:31:19.466Z,0.93
2022-09-18T00:33:46.475Z,0.90
2022-09-18T00:36:16.257Z,1.20
2022-09-18T00:38:43.454Z,0.83
2022-09-18T00:41:19.819Z,0.57
2022-09-18T00:43:46.678Z,0.67
2022-09-18T00:46:35.107Z,0.63
2022-09-18T00:49:11.940Z,0.67
2022-09-18T00:51:39.788Z,0.73
2022-09-18T00:54:39.104Z,1.20
2022-09-18T00:57:12.776Z,0.70
2022-09-18T00:59:43.243Z,0.77
2022-09-18T01:02:10.322Z,1.40
2022-09-18T01:04:37.336Z,1.00
2022-09-18T01:07:20.970Z,0.70
2022-09-18T01:10:02.964Z,0.47
2022-09-18T01:12:52.573Z,0.47
2022-09-18T01:15:52.749Z,0.80
2022-09-18T01:18:50.823Z,0.87
2022-09-18T01:21:23.465Z,0.77
2022-09-18T01:24:32.376Z,0.80
2022-09-18T01:27:06.522Z,0.57
2022-09-18T01:29:55.722Z,1.17
2022-09-18T01:32:47.384Z,0.93
2022-09-18T01:35:40.410Z,0.87
2022-09-18T01:38:17.174Z,0.93
2022-09-18T01:41:14.321Z,0.73
2022-09-18T01:43:42.977Z,0.80
2022-09-18T01:46:15.561Z,1.10
2022-09-18T01:49:04.831Z,0.90
2022-09-18T01:51:47.611Z,0.63
2022-09-18T01:54:22.820Z,0.70
2022-09-18T01:56:57.935Z,0.70
2022-09-18T01:59:31.141Z,0.70
2022-09-18T02:02:13.968Z,1.00
2022-09-18T02:04:44.631Z,1.20
2022-09-18T02:07:20.610Z,0.90
2022-09-18T02:09:48.567Z,0.83
2022-09-18T02:12:21.432Z,0.77
2022-09-18T02:14:56.144Z,1.27
2022-09-18T02:17:51.269Z,0.73
2022-09-18T02:20:30.510Z,0.90
2022-09-18T02:23:02.636Z,0.70
2022-09-18T02:25:35.862Z,0.60
2022-09-18T02:28:06.372Z,0.47
2022-09-18T02:30:34.090Z,0.60
2022-09-18T02:33:00.998Z,0.40
2022-09-18T02:35:44.331Z,0.90
2022-09-18T02:38:55.403Z,0.70
2022-09-18T02:41:38.366Z,0.43
2022-09-18T02:44:15.901Z,0.70
2022-09-18T02:46:46.580Z,0.57
2022-09-18T02:49:19.308Z,0.70
2022-09-18T02:52:15.831Z,0.63
2022-09-18T02:55:10.188Z,0.50
2022-09-18T02:57:40.504Z,0.57
2022-09-18T03:00:15.450Z,0.80
2022-09-18T03:02:49.755Z,0.80
2022-09-18T03:05:30.510Z,0.50
2022-09-18T03:07:59.776Z,0.83
2022-09-18T03:10:29.050Z,0.50
2022-09-18T03:12:57.165Z,0.50
2022-09-18T03:15:24.072Z,0.43
2022-09-18T03:17:51.405Z,0.30
2022-09-18T03:20:18.171Z,0.70
2022-09-18T03:22:45.228Z,0.50
2022-09-18T03:25:16.634Z,0.30
2022-09-18T03:28:04.010Z,0.40
2022-09-18T03:30:36.843Z,0.50
2022-09-18T03:33:03.995Z,0.40
2022-09-18T03:35:32.571Z,0.40
2022-09-18T03:37:59.577Z,0.40
2022-09-18T03:40:29.844Z,0.43
2022-09-18T03:42:57.310Z,0.73
2022-09-18T03:45:25.477Z,0.57
2022-09-18T03:47:53.171Z,0.60
2022-09-18T03:50:21.432Z,0.27
2022-09-18T03:52:51.374Z,0.47
2022-09-18T03:55:37.633Z,0.57
2022-09-18T03:58:22.493Z,0.30
2022-09-18T04:01:14.212Z,0.43
2022-09-18T04:04:07.135Z,0.90
2022-09-18T04:07:08.016Z,0.40
2022-09-18T04:10:13.463Z,0.70
2022-09-18T04:12:41.078Z,0.57
2022-09-18T04:15:16.548Z,0.60
2022-09-18T04:17:43.746Z,0.30
2022-09-18T04:20:11.067Z,0.90
2022-09-18T04:22:38.068Z,0.50
2022-09-18T04:25:05.541Z,0.37
2022-09-18T04:27:34.179Z,0.47
2022-09-18T04:30:00.987Z,0.70
2022-09-18T04:32:28.435Z,0.60
2022-09-18T04:34:55.692Z,0.40
2022-09-18T04:37:22.515Z,0.60
2022-09-18T04:39:52.223Z,0.50
2022-09-18T04:42:19.025Z,0.80
2022-09-18T04:44:47.283Z,0.30
2022-09-18T04:47:14.859Z,0.40
2022-09-18T04:49:41.891Z,0.57
2022-09-18T04:52:08.758Z,0.87
2022-09-18T04:54:35.763Z,0.60
2022-09-18T04:57:03.867Z,1.00
2022-09-18T04:59:30.726Z,0.53
2022-09-18T05:01:59.423Z,0.50
2022-09-18T05:04:27.195Z,0.30
2022-09-18T05:07:05.195Z,0.50
2022-09-18T05:09:34.613Z,0.57
2022-09-18T05:12:02.085Z,0.87
2022-09-18T05:14:29.339Z,0.67
2022-09-18T05:17:00.757Z,1.03
2022-09-18T05:19:31.606Z,0.53
2022-09-18T05:22:06.507Z,0.90
2022-09-18T05:24:36.989Z,0.77
2022-09-18T05:27:05.869Z,0.70
2022-09-18T05:29:32.619Z,1.00
2022-09-18T05:32:08.801Z,0.97
2022-09-18T05:34:37.029Z,0.90
2022-09-18T05:37:03.791Z,0.90
2022-09-18T05:39:31.716Z,0.67
2022-09-18T05:42:02.066Z,0.50
2022-09-18T05:44:29.174Z,0.50
2022-09-18T05:46:58.254Z,0.60
2022-09-18T05:49:27.449Z,0.60
2022-09-18T05:51:56.154Z,0.67
2022-09-18T05:54:22.990Z,0.57
2022-09-18T05:56:53.682Z,0.40
2022-09-18T05:59:20.488Z,0.77
2022-09-18T06:01:48.821Z,0.40
2022-09-18T06:04:35.639Z,0.50
2022-09-18T06:07:06.773Z,0.70
2022-09-18T06:09:33.660Z,0.43
2022-09-18T06:12:00.649Z,0.40
2022-09-18T06:14:27.641Z,0.60
2022-09-18T06:16:55.636Z,0.80
2022-09-18T06:19:22.621Z,0.50
2022-09-18T06:21:49.448Z,0.97
2022-09-18T06:24:18.901Z,0.30
2022-09-18T06:27:00.863Z,0.50
2022-09-18T06:29:27.608Z,0.60
2022-09-18T06:32:00.693Z,0.47
2022-09-18T06:34:27.898Z,0.47
2022-09-18T06:37:00.885Z,0.50
2022-09-18T06:39:51.097Z,0.50
2022-09-18T06:42:39.852Z,0.53
2022-09-18T06:45:14.981Z,0.67
2022-09-18T06:47:42.011Z,0.50
2022-09-18T06:50:09.296Z,0.67
2022-09-18T06:52:37.789Z,0.70
2022-09-18T06:55:05.800Z,0.50
2022-09-18T06:57:33.475Z,0.43
2022-09-18T07:00:00.643Z,0.50
2022-09-18T07:02:32.455Z,0.30
2022-09-18T07:05:22.135Z,0.90
2022-09-18T07:07:48.967Z,0.40
2022-09-18T07:10:17.035Z,0.67
2022-09-18T07:12:48.982Z,0.47
2022-09-18T07:15:19.859Z,0.70
2022-09-18T07:17:46.680Z,0.87
2022-09-18T07:20:16.270Z,0.70
2022-09-18T07:22:47.481Z,0.53
2022-09-18T07:25:15.421Z,0.73
2022-09-18T07:27:43.871Z,0.80
2022-09-18T07:30:12.853Z,0.80
2022-09-18T07:32:39.893Z,0.57
2022-09-18T07:35:13.939Z,0.60
2022-09-18T07:37:41.058Z,0.70
2022-09-18T07:40:18.632Z,1.10
2022-09-18T07:43:07.721Z,0.70
2022-09-18T07:45:36.782Z,0.73
2022-09-18T07:48:08.050Z,1.00
2022-09-18T07:50:41.358Z,0.70
2022-09-18T07:53:10.669Z,0.50
2022-09-18T07:55:43.038Z,0.60
2022-09-18T07:58:09.872Z,0.60
2022-09-18T08:01:01.755Z,0.60
2022-09-18T08:03:30.411Z,0.63
2022-09-18T08:06:08.240Z,0.60
2022-09-18T08:08:36.283Z,0.50
2022-09-18T08:11:22.597Z,0.50
2022-09-18T08:13:59.027Z,0.53
2022-09-18T08:16:41.416Z,0.67
2022-09-18T08:19:26.109Z,0.40
2022-09-18T08:22:00.601Z,0.50
2022-09-18T08:24:27.725Z,0.60
2022-09-18T08:26:57.241Z,0.60
2022-09-18T08:29:24.374Z,0.50
2022-09-18T08:31:59.510Z,0.60
2022-09-18T08:34:27.436Z,0.73
2022-09-18T08:36:55.287Z,0.60
2022-09-18T08:39:41.314Z,0.67
2022-09-18T08:42:30.987Z,0.67
2022-09-18T08:45:35.223Z,0.80
2022-09-18T08:48:10.051Z,0.60
2022-09-18T08:50:44.088Z,0.40
2022-09-18T08:53:20.708Z,0.47
2022-09-18T08:56:06.572Z,0.40
2022-09-18T08:58:52.899Z,0.33
2022-09-18T09:01:22.157Z,0.20
2022-09-18T09:04:28.630Z,0.53
2022-09-18T09:07:21.240Z,1.20
2022-09-18T09:10:13.869Z,0.80
2022-09-18T09:12:49.921Z,0.90
2022-09-18T09:15:28.924Z,0.70
2022-09-18T09:18:14.010Z,0.97
2022-09-18T09:20:51.701Z,0.80
2022-09-18T09:23:36.346Z,0.80
2022-09-18T09:26:19.681Z,1.00
2022-09-18T09:29:21.484Z,1.20
2022-09-18T09:32:32.935Z,1.33
2022-09-18T09:35:22.802Z,0.90
2022-09-18T09:38:15.128Z,0.77
2022-09-18T09:40:52.746Z,0.97
2022-09-18T09:43:48.253Z,0.83
2022-09-18T09:46:32.125Z,1.00
2022-09-18T09:49:08.438Z,0.57
2022-09-18T09:51:46.991Z,1.10
2022-09-18T09:54:14.004Z,0.90
2022-09-18T09:56:59.309Z,0.97
2022-09-18T09:59:46.199Z,2.70
2022-09-18T10:02:41.130Z,0.93
2022-09-18T10:05:43.919Z,0.90
2022-09-18T10:08:22.398Z,0.80
2022-09-18T10:10:55.433Z,1.30
2022-09-18T10:13:28.136Z,0.87
2022-09-18T10:16:08.815Z,0.83
2022-09-18T10:18:46.156Z,0.77
2022-09-18T10:21:22.339Z,1.27
2022-09-18T10:24:06.033Z,0.90
2022-09-18T10:26:52.076Z,1.27
2022-09-18T10:29:19.156Z,1.00
2022-09-18T10:31:59.135Z,1.50
2022-09-18T10:34:36.977Z,1.10
2022-09-18T10:37:05.329Z,0.90
2022-09-18T10:39:39.014Z,0.83
2022-09-18T10:42:17.017Z,1.17
2022-09-18T10:44:51.413Z,0.83
2022-09-18T10:47:25.194Z,0.70
2022-09-18T10:50:17.817Z,0.80
2022-09-18T10:52:49.756Z,1.03
2022-09-18T10:55:26.506Z,1.10
2022-09-18T10:58:02.526Z,0.70
2022-09-18T11:00:37.134Z,0.70
2022-09-18T11:03:17.915Z,0.80
2022-09-18T11:05:55.594Z,0.63
2022-09-18T11:08:31.475Z,0.70
2022-09-18T11:11:13.078Z,0.70
2022-09-18T11:13:50.746Z,0.50
2022-09-18T11:16:27.211Z,0.97
2022-09-18T11:19:11.131Z,0.90
2022-09-18T11:21:50.772Z,1.00
2022-09-18T11:24:24.613Z,0.47
2022-09-18T11:27:00.366Z,0.90
2022-09-18T11:29:33.664Z,0.80
2022-09-18T11:32:04.011Z,0.93
2022-09-18T11:34:40.011Z,0.80
2022-09-18T11:37:14.026Z,0.90
2022-09-18T11:39:50.662Z,0.90
2022-09-18T11:42:18.836Z,0.63
2022-09-18T11:44:48.229Z,0.60
2022-09-18T11:47:38.292Z,0.97
2022-09-18T11:50:19.408Z,0.80
2022-09-18T11:53:11.078Z,0.70
2022-09-18T11:55:46.447Z,1.17
2022-09-18T11:58:42.831Z,0.90
2022-09-18T12:01:21.639Z,0.40
2022-09-18T12:04:27.618Z,0.73
2022-09-18T12:07:38.400Z,0.60
2022-09-18T12:10:45.284Z,1.30
2022-09-18T12:13:21.848Z,1.20
2022-09-18T12:15:57.377Z,0.87
2022-09-18T12:18:31.290Z,0.70
2022-09-18T12:21:05.079Z,0.60
2022-09-18T12:23:32.579Z,0.60
2022-09-18T12:26:18.085Z,0.60
2022-09-18T12:29:17.436Z,0.70
2022-09-18T12:32:34.481Z,0.60
2022-09-18T12:35:20.915Z,0.60
2022-09-18T12:38:33.077Z,0.50
2022-09-18T12:41:30.874Z,0.60
2022-09-18T12:44:03.991Z,0.50
2022-09-18T12:46:49.697Z,0.67
2022-09-18T12:49:31.699Z,0.60
2022-09-18T12:52:17.044Z,0.73
2022-09-18T12:54:50.172Z,0.60
2022-09-18T12:57:32.274Z,0.70
2022-09-18T13:00:12.365Z,0.70
2022-09-18T13:03:03.066Z,0.80
2022-09-18T13:05:36.156Z,0.53
2022-09-18T13:08:19.050Z,1.00
2022-09-18T13:10:49.258Z,0.70
2022-09-18T13:13:29.590Z,0.60
2022-09-18T13:16:02.109Z,0.67
2022-09-18T13:18:39.694Z,0.60
2022-09-18T13:21:10.376Z,0.90
2022-09-18T13:23:39.336Z,0.83
2022-09-18T13:26:12.657Z,0.90
2022-09-18T13:28:43.727Z,1.10
2022-09-18T13:31:29.230Z,0.80
2022-09-18T13:33:59.827Z,0.80
2022-09-18T13:36:32.746Z,0.80
2022-09-18T13:39:06.336Z,0.90
2022-09-18T13:41:45.463Z,0.90
2022-09-18T13:44:21.770Z,0.70
2022-09-18T13:46:51.704Z,0.90
2022-09-18T13:49:33.575Z,0.83
2022-09-18T13:52:28.301Z,0.70
2022-09-18T13:55:04.520Z,0.77
2022-09-18T13:57:32.726Z,0.50
2022-09-18T14:00:07.884Z,0.80
2022-09-18T14:02:41.258Z,0.77
2022-09-18T14:05:11.071Z,0.83
2022-09-18T14:07:40.614Z,0.80
2022-09-18T14:10:26.352Z,0.83
2022-09-18T14:13:35.021Z,0.87
2022-09-18T14:16:13.935Z,0.73
2022-09-18T14:18:43.823Z,0.87
2022-09-18T14:21:32.050Z,0.90
2022-09-18T14:24:15.413Z,1.20
2022-09-18T14:26:42.300Z,0.90
2022-09-18T14:29:15.124Z,1.10
2022-09-18T14:31:45.249Z,1.00
2022-09-18T14:34:27.214Z,0.57
2022-09-18T14:36:59.347Z,0.70
2022-09-18T14:39:29.373Z,1.10
2022-09-18T14:42:25.014Z,0.80
2022-09-18T14:45:01.425Z,0.70
2022-09-18T14:47:29.224Z,0.90
2022-09-18T14:49:56.090Z,0.87
2022-09-18T14:52:28.476Z,0.73
2022-09-18T14:55:00.937Z,0.80
2022-09-18T14:57:34.434Z,1.00
2022-09-18T15:00:02.522Z,0.50
2022-09-18T15:02:34.106Z,0.90
2022-09-18T15:05:09.731Z,0.87
2022-09-18T15:07:39.937Z,1.13
2022-09-18T15:10:09.108Z,1.50
2022-09-18T15:12:37.348Z,1.57
2022-09-18T15:15:31.710Z,1.10
2022-09-18T15:17:59.220Z,1.10
2022-09-18T15:20:27.607Z,1.30
2022-09-18T15:22:54.829Z,1.00
2022-09-18T15:25:33.648Z,1.17
2022-09-18T15:28:04.199Z,0.83
2022-09-18T15:30:31.193Z,1.03
2022-09-18T15:33:06.419Z,0.80
2022-09-18T15:35:37.558Z,1.13
2022-09-18T15:38:14.682Z,0.80
2022-09-18T15:40:43.677Z,0.83
2022-09-18T15:43:29.080Z,0.77
2022-09-18T15:46:11.180Z,0.80
2022-09-18T15:48:42.051Z,0.70
2022-09-18T15:51:12.687Z,0.80
2022-09-18T15:53:39.822Z,0.77
2022-09-18T15:56:18.087Z,0.87
2022-09-18T15:58:51.631Z,0.67
2022-09-18T16:01:25.136Z,1.17
2022-09-18T16:04:08.911Z,0.57
2022-09-18T16:06:43.295Z,0.77
2022-09-18T16:09:24.224Z,0.60
2022-09-18T16:11:51.974Z,0.60
2022-09-18T16:14:42.334Z,1.57
2022-09-18T16:17:37.050Z,1.07
2022-09-18T16:20:29.956Z,1.07
2022-09-18T16:23:05.297Z,1.17
2022-09-18T16:25:36.153Z,1.37
2022-09-18T16:28:07.051Z,1.10
2022-09-18T16:30:33.932Z,1.20
2022-09-18T16:33:28.549Z,1.00
2022-09-18T16:36:04.651Z,1.10
2022-09-18T16:38:32.692Z,1.30
2022-09-18T16:40:59.822Z,0.90
2022-09-18T16:43:26.776Z,1.40
2022-09-18T16:45:55.658Z,0.80
2022-09-18T16:48:24.458Z,0.53
2022-09-18T16:50:51.404Z,0.60
2022-09-18T16:53:18.874Z,0.77
2022-09-18T16:55:52.046Z,0.80
2022-09-18T16:58:20.121Z,0.50
2022-09-18T17:00:47.000Z,0.70
2022-09-18T17:03:14.411Z,0.60
2022-09-18T17:05:41.566Z,0.90
2022-09-18T17:08:08.416Z,1.50
2022-09-18T17:10:35.732Z,0.97
2022-09-18T17:13:03.595Z,1.20
2022-09-18T17:15:30.703Z,1.00
2022-09-18T17:17:57.741Z,1.10
2022-09-18T17:20:24.745Z,1.43
2022-09-18T17:22:51.892Z,0.53
2022-09-18T17:25:19.527Z,1.40
2022-09-18T17:27:47.610Z,1.20
2022-09-18T17:30:14.515Z,1.17
2022-09-18T17:32:42.134Z,0.87
2022-09-18T17:35:09.027Z,1.23
2022-09-18T17:37:35.985Z,1.30
2022-09-18T17:40:03.155Z,1.40
2022-09-18T17:42:30.460Z,1.37
2022-09-18T17:44:57.418Z,1.30
2022-09-18T17:47:24.654Z,1.53
2022-09-18T17:49:51.436Z,0.83
2022-09-18T17:52:18.658Z,1.13
2022-09-18T17:54:45.468Z,1.27
2022-09-18T17:57:12.441Z,1.30
2022-09-18T17:59:41.066Z,1.10
2022-09-18T18:02:10.905Z,1.27
2022-09-18T18:04:38.111Z,1.43
2022-09-18T18:07:06.518Z,1.53
2022-09-18T18:09:36.376Z,2.27
2022-09-18T18:12:04.700Z,1.63
2022-09-18T18:14:32.236Z,1.17
2022-09-18T18:17:00.847Z,1.60
2022-09-18T18:19:28.131Z,1.47
2022-09-18T18:21:55.290Z,1.90
2022-09-18T18:24:23.538Z,1.60
2022-09-18T18:26:50.391Z,1.30
2022-09-18T18:29:19.527Z,1.47
2022-09-18T18:31:49.237Z,1.20
2022-09-18T18:34:21.393Z,1.37
2022-09-18T18:36:50.269Z,1.70
2022-09-18T18:39:19.952Z,1.27
2022-09-18T18:41:47.410Z,1.30
2022-09-18T18:44:14.451Z,1.30
2022-09-18T18:46:41.292Z,2.20
2022-09-18T18:49:11.483Z,1.53
2022-09-18T18:51:43.040Z,2.03
2022-09-18T18:54:10.455Z,1.83
2022-09-18T18:56:38.976Z,1.50
2022-09-18T18:59:08.842Z,1.60
2022-09-18T19:01:36.195Z,1.97
2022-09-18T19:04:08.329Z,1.50
2022-09-18T19:06:38.778Z,1.13
2022-09-18T19:09:09.280Z,1.00
2022-09-18T19:11:46.790Z,0.90
2022-09-18T19:14:31.762Z,1.33
2022-09-18T19:16:58.932Z,1.00
2022-09-18T19:19:28.246Z,1.40
2022-09-18T19:21:59.568Z,1.27
2022-09-18T19:24:27.243Z,1.20
2022-09-18T19:26:54.492Z,1.37
2022-09-18T19:29:22.120Z,0.90
2022-09-18T19:31:50.328Z,1.30
2022-09-18T19:34:19.337Z,1.07
2022-09-18T19:36:49.222Z,1.63
2022-09-18T19:39:17.526Z,1.10
2022-09-18T19:41:47.486Z,1.30
2022-09-18T19:44:43.484Z,1.73
2022-09-18T19:47:34.359Z,1.93
2022-09-18T19:50:03.665Z,1.40
2022-09-18T19:52:30.616Z,1.43
2022-09-18T19:54:59.344Z,1.27
2022-09-18T19:57:27.873Z,1.70
2022-09-18T19:59:57.245Z,1.20
2022-09-18T20:02:25.491Z,1.30
2022-09-18T20:04:52.539Z,0.90
2022-09-18T20:07:19.469Z,1.17
2022-09-18T20:09:46.363Z,1.47
2022-09-18T20:12:13.856Z,1.03
2022-09-18T20:14:41.032Z,0.90
2022-09-18T20:17:08.389Z,1.00
2022-09-18T20:19:35.954Z,0.90
2022-09-18T20:22:03.971Z,1.20
2022-09-18T20:24:31.966Z,0.97
2022-09-18T20:26:59.344Z,1.37
2022-09-18T20:29:27.569Z,1.00
2022-09-18T20:31:54.669Z,1.37
2022-09-18T20:34:24.865Z,1.23
2022-09-18T20:36:52.336Z,1.60
2022-09-18T20:39:19.373Z,1.63
2022-09-18T20:41:46.565Z,1.30
2022-09-18T20:44:13.639Z,1.20
2022-09-18T20:46:40.628Z,1.60
2022-09-18T20:49:07.860Z,0.73
2022-09-18T20:51:36.138Z,1.20
2022-09-18T20:54:06.984Z,0.90
2022-09-18T20:56:36.787Z,1.10
2022-09-18T20:59:05.162Z,1.10
2022-09-18T21:01:38.072Z,1.30
2022-09-18T21:04:05.212Z,1.93
2022-09-18T21:06:33.592Z,1.40
2022-09-18T21:09:05.746Z,1.10
2022-09-18T21:11:36.324Z,1.40
2022-09-18T21:14:05.453Z,1.37
2022-09-18T21:16:35.225Z,1.03
2022-09-18T21:19:04.751Z,1.03
2022-09-18T21:21:34.147Z,1.10
2022-09-18T21:24:01.966Z,0.77
2022-09-18T21:26:33.097Z,1.00
2022-09-18T21:29:02.306Z,0.80
2022-09-18T21:31:30.438Z,0.80
2022-09-18T21:33:59.173Z,0.90
2022-09-18T21:36:27.238Z,1.40
2022-09-18T21:38:55.086Z,0.83
2022-09-18T21:41:23.204Z,0.80
2022-09-18T21:43:51.043Z,0.97
2022-09-18T21:46:20.308Z,1.87
2022-09-18T21:48:49.203Z,1.17
2022-09-18T21:51:17.297Z,1.07
2022-09-18T21:53:44.785Z,1.30
2022-09-18T21:56:17.323Z,1.17
2022-09-18T21:58:45.943Z,0.77
2022-09-18T22:01:18.394Z,1.33
2022-09-18T22:03:52.363Z,0.90
2022-09-18T22:06:24.472Z,0.90
2022-09-18T22:08:54.610Z,0.70
2022-09-18T22:11:27.276Z,1.00
2022-09-18T22:13:56.113Z,1.10
2022-09-18T22:16:29.623Z,0.70
2022-09-18T22:18:58.027Z,1.10
2022-09-18T22:21:48.392Z,0.93
2022-09-18T22:24:35.434Z,0.97
2022-09-18T22:27:10.642Z,1.17
2022-09-18T22:29:39.640Z,1.87
2022-09-18T22:32:06.894Z,0.90
2022-09-18T22:34:37.480Z,0.77
2022-09-18T22:37:04.474Z,1.07
2022-09-18T22:39:31.626Z,0.93
2022-09-18T22:41:58.636Z,1.13
2022-09-18T22:44:26.667Z,0.90
2022-09-18T22:46:54.040Z,1.57
2022-09-18T22:49:22.998Z,1.03
2022-09-18T22:51:50.853Z,0.93
2022-09-18T22:54:23.966Z,1.20
2022-09-18T22:56:52.458Z,0.83
2022-09-18T22:59:22.340Z,1.17
2022-09-18T23:01:58.323Z,1.30
2022-09-18T23:04:29.141Z,1.07
2022-09-18T23:06:57.402Z,1.20
2022-09-18T23:09:25.156Z,0.80
2022-09-18T23:11:53.245Z,1.50
2022-09-18T23:14:28.964Z,0.77
2022-09-18T23:16:58.084Z,1.00
2022-09-18T23:19:29.777Z,0.50
2022-09-18T23:21:57.393Z,1.00
2022-09-18T23:24:25.234Z,0.63
2022-09-18T23:26:55.832Z,0.93
2022-09-18T23:29:24.870Z,1.20
2022-09-18T23:31:53.548Z,1.10
2022-09-18T23:34:23.497Z,1.37
2022-09-18T23:36:53.092Z,1.37
2022-09-18T23:39:29.219Z,1.20
2022-09-18T23:41:58.843Z,1.20
2022-09-18T23:44:28.719Z,1.70
2022-09-18T23:46:56.215Z,1.33
2022-09-18T23:49:23.817Z,1.43
2022-09-18T23:51:54.033Z,1.43
2022-09-18T23:54:26.431Z,1.47
2022-09-18T23:56:54.704Z,1.37
2022-09-18T23:59:23.946Z,1.20
